Anza Borrego Desert State Park, California Weather observations

Data are for 10 minute period ending at time listed.
 Day   Time   Solar   Ave.   Ave.  Ave.  Vector  Max.   Baro.   Total    
  of    of     Rad.   Air    Rel.  Wind   Wind   Wind  Press.  Precip.   
Year   Day            Temp.  Hum.  Speed  Dir.   Gust                    
2017   (PST)  Kw/m2    F      %     mph   deg.    mph    mb.     in.     
-------------------------------------------------------------------------
  84   14:50   0.69   73.7    28    7.9     8    22.9   982.5    0.00 
  84   15:00   0.64   75.9    28    4.8   239    11.7   982.3    0.00 
  84   15:10   0.59   74.6    29    7.0   305    18.3   982.2    0.00 
  84   15:20   0.51   74.3    29    9.3   255    18.9   982.1    0.00 
  84   15:30   0.51   74.3    30    5.9   328    13.7   981.8    0.00 
  84   15:40   0.48   74.6    30    5.7   244    12.9   981.8    0.00 
  84   15:50   0.45   73.7    30    9.7   266    23.7   981.6    0.00 
  84   16:00   0.42   73.7    31    4.9   217    11.8   981.7    0.00 
  84   16:10   0.38   74.0    32    4.4   212    10.7   981.8    0.00 
  84   16:20   0.34   73.3    35    8.7    79    14.4   981.8    0.00 
  84   16:30   0.30   72.1    34    8.2   350    17.3   981.8    0.00 
  84   16:40   0.27   72.8    34    6.7   166    18.6   981.8    0.00 
  84   16:50   0.22   71.8    36    8.8   116    14.0   981.7    0.00 
  84   17:00   0.15   71.3    35    8.3   194    21.2   981.8    0.00 
  84   17:10   0.02   69.7    37   11.4   239    29.6   981.9    0.00 
  84   17:20   0.01   67.5    42   21.7   225    33.3   981.7    0.00 
  84   17:30   0.01   67.5    39   13.9   232    27.0   981.6    0.00 
  84   17:40   0.01   69.1    30    3.9   273    11.0   981.6    0.00 
  84   17:50   0.01   69.8    26    5.0   312    14.0   981.6    0.00 
  84   18:00   0.00   69.6    28    4.9   227    14.2   981.7    0.00 
  84   18:10   0.00   68.8    30    6.3   104    11.0   981.8    0.00 
  84   18:20   0.00   68.5    32    5.4    37    13.1   981.9    0.00 
  84   18:30   0.00   67.8    34    6.7   151    13.0   982.0    0.00 
  84   18:40   0.00   67.6    34    5.0    92    10.4   982.0    0.00 
  84   18:50   0.00   68.1    33    5.4   286    12.5   982.1    0.00 
  84   19:00   0.00   68.0    34    4.9   310    12.3   982.2    0.00 
  84   19:10   0.00   67.5    35    4.3   335    11.6   982.2    0.00 
  84   19:20   0.00   66.5    37    4.2   207     7.8   982.3    0.00 
  84   19:30   0.00   64.5    40    4.8   181     8.7   982.4    0.00 
  84   19:40   0.00   63.7    41    2.6   264     5.3   982.6    0.00 
  84   19:50   0.00   63.8    41    2.6   146     6.6   982.6    0.00 
  84   20:00   0.00   63.7    42    2.6   230     9.3   982.8    0.00 
  84   20:10   0.00   64.8    40    1.8   252     6.0   982.9    0.00 
  84   20:20   0.00   60.9    46    5.0   251     6.8   982.9    0.00 
  84   20:30   0.00   59.4    48    5.8   265     7.7   983.1    0.00 
  84   20:40   0.00   59.2    48    4.6   266     7.2   983.0    0.00 
  84   20:50   0.00   59.1    49    4.1   260     7.2   983.0    0.00 
  84   21:00   0.00   61.1    47    5.8   293    11.5   983.0    0.00 
  84   21:10   0.00   62.2    46    2.7   257    10.4   983.0    0.00 
  84   21:20   0.00   60.9    48    4.4   302    10.1   983.0    0.00 
  84   21:30   0.00   62.4    46    5.4   340     8.2   983.1    0.00 
  84   21:40   0.00   63.1    45    5.1   344     8.4   983.1    0.00 
  84   21:50   0.00   61.9    46    2.7   276     6.4   983.1    0.00 
  84   22:00   0.00   58.6    51    5.7   254     7.7   983.0    0.00 
  84   22:10   0.00   60.0    49    5.4   283    10.2   983.0    0.00 
  84   22:20   0.00   60.8    49    4.0   334     9.7   983.0    0.00 
  84   22:30   0.00   60.2    51    2.7   352     5.3   983.0    0.00 
  84   22:40   0.00   58.2    53    2.5   136     3.9   983.0    0.00 
  84   22:50   0.00   56.5    55    2.6   184     5.3   983.0    0.00 
  84   23:00   0.00   55.8    57    3.3   274     5.8   982.8    0.00 
  84   23:10   0.00   55.3    58    2.5   300     3.8   982.7    0.00 
  84   23:20   0.00   55.7    58    2.2   265     5.6   982.7    0.00 
  84   23:30   0.00   55.3    57    5.7   263     7.3   982.7    0.00 
  84   23:40   0.00   55.4    56    4.5   273     6.7   982.7    0.00 
  84   23:50   0.00   55.6    58    3.6   300     5.4   982.7    0.00 
  85    0:00   0.00   55.4    59    3.7   311     5.5   982.7    0.00 
  85    0:10   0.00   54.3    60    3.5   300     6.0   982.7    0.00 
  85    0:20   0.00   54.3    60    3.0   306     4.3   982.7    0.00 
  85    0:30   0.00   54.6    59    1.5   324     3.6   982.6    0.00 
  85    0:40   0.00   53.0    62    3.4   274     5.0   982.5    0.00 
  85    0:50   0.00   52.8    61    3.6   247     5.3   982.3    0.00 
  85    1:00   0.00   52.3    61    2.9   229     3.7   982.3    0.00 
  85    1:10   0.00   51.6    63    2.4   266     4.1   982.4    0.00 
  85    1:20   0.00   52.4    63    3.0   312     3.9   982.4    0.00 
  85    1:30   0.00   51.7    65    3.4   274     4.1   982.3    0.00 
  85    1:40   0.00   51.6    65    3.6   248     5.5   982.1    0.00 
  85    1:50   0.00   51.1    65    3.7   221     4.7   981.9    0.00 
  85    2:00   0.00   51.1    65    4.5   237     5.6   981.8    0.00 
  85    2:10   0.00   51.7    62    4.6   236     6.2   981.8    0.00 
  85    2:20   0.00   51.1    64    4.3   220     5.5   981.8    0.00 
  85    2:30   0.00   50.8    64    2.4   246     4.2   981.8    0.00 
  85    2:40   0.00   51.4    63    2.3   297     3.9   981.6    0.00 
  85    2:50   0.00   51.1    67    2.3   330     3.9   981.6    0.00 
  85    3:00   0.00   51.2    67    3.3   272     4.7   981.6    0.00 
  85    3:10   0.00   50.4    68    3.6   269     4.7   981.6    0.00 
  85    3:20   0.00   49.2    71    4.6   258     5.8   981.6    0.00 
  85    3:30   0.00   49.7    70    5.6   239     6.4   981.6    0.00 
  85    3:40   0.00   51.0    63    5.6   246     7.4   981.5    0.00 
  85    3:50   0.00   51.1    60    6.1   236     7.9   981.6    0.00 
  85    4:00   0.00   52.0    57    2.7   226     4.3   981.6    0.00 
  85    4:10   0.00   51.6    57    3.3   218     4.6   981.6    0.00 
  85    4:20   0.00   50.5    57    3.7   233     5.5   981.6    0.00 
  85    4:30   0.00   50.3    58    2.0   257     3.1   981.7    0.00 
  85    4:40   0.00   51.0    59    2.7   265     3.7   981.8    0.00 
  85    4:50   0.00   49.4    62    3.0   197     4.7   981.9    0.00 
  85    5:00   0.00   48.4    63    3.2   223     4.2   982.0    0.00 
  85    5:10   0.00   48.8    60    3.3   240     4.0   982.0    0.00 
  85    5:20   0.00   49.8    60    3.0   224     3.9   982.1    0.00 
  85    5:30   0.00   50.1    62    3.5   204     5.3   982.2    0.00 
  85    5:40   0.00   48.5    64    2.8   220     4.0   982.2    0.00 
  85    5:50   0.00   48.5    62    3.2   227     4.1   982.3    0.00 
  85    6:00   0.02   50.3    57    3.4   232     4.1   982.4    0.00 
  85    6:10   0.04   53.0    53    2.2   255     3.1   982.6    0.00 
  85    6:20   0.07   54.3    54    3.9   308     5.3   982.7    0.00 
  85    6:30   0.10   56.6    54    2.5   271     4.5   982.8    0.00 
  85    6:40   0.13   60.4    48    1.7   257     2.9   983.0    0.00 
  85    6:50   0.16   63.6    46    0.5   209     1.7   983.2    0.00 
  85    7:00   0.19   67.4    40    0.2   212     1.1   983.5    0.00 
  85    7:10   0.23   67.3    40    1.3   259     2.2   983.6    0.00 
  85    7:20   0.27   68.2    38    0.8   244     2.6   983.9    0.00 
  85    7:30   0.30   70.8    35    0.7   130     2.9   984.0    0.00 
  85    7:40   0.34   70.2    35    1.3    84     2.9   984.0    0.00 
  85    7:50   0.38   69.4    36    1.8    94     3.3   984.1    0.00 
  85    8:00   0.41   70.2    35    1.0   125     3.2   984.3    0.00 
  85    8:10   0.45   72.4    33    0.7   120     2.6   984.2    0.00 
  85    8:20   0.48   71.5    34    2.0    35     4.0   984.2    0.00 
  85    8:30   0.49   72.4    33    0.9    70     2.7   984.1    0.00 
  85    8:40   0.55   72.0    32    1.4    45     3.9   984.1    0.00 
  85    8:50   0.58   73.0    30    1.7   113     3.4   984.1    0.00 
  85    9:00   0.61   74.2    28    0.9    52     2.9   984.1    0.00 
  85    9:10   0.64   73.4    28    2.2   346     4.9   984.0    0.00 
  85    9:20   0.67   74.6    25    1.1    93     4.1   983.9    0.00 
  85    9:30   0.70   75.0    25    2.5    87     4.5   983.8    0.00 
  85    9:40   0.72   74.9    24    1.9    88     4.7   983.7    0.00 
  85    9:50   0.75   76.4    23    1.6    88     7.1   983.7    0.00 
  85   10:00   0.76   76.1    22    2.3    76     6.6   983.7    0.00 
  85   10:10   0.78   76.9    21    2.5    76     5.0   983.7    0.00 
  85   10:20   0.78   77.6    20    2.9    76     5.9   983.7    0.00 
  85   10:30   0.80   76.6    21    2.5    14     4.7   983.7    0.00 
  85   10:40   0.83   77.6    20    3.0   128     6.6   983.5    0.00 
  85   10:50   0.85   77.3    20    4.5    80     8.5   983.5    0.00 
  85   11:00   0.86   78.1    20    2.1   137     6.5   983.5    0.00 
  85   11:10   0.87   78.9    20    5.0    97     8.9   983.4    0.00 
  85   11:20   0.88   78.4    20    5.7   100    11.2   983.3    0.00 
  85   11:30   0.86   79.1    20    3.3   111     8.8   983.1    0.00 
  85   11:40   0.89   79.2    20    4.8    79     8.7   983.1    0.00 
  85   11:50   0.89   78.7    21    5.2   104    12.9   982.9    0.00 
  85   12:00   0.89   78.7    21    6.2   105    12.4   982.8    0.00 
  85   12:10   0.89   79.4    21    5.0    16    10.5   982.7    0.00 
  85   12:20   0.88   79.2    21    3.8     3     6.6   982.6    0.00 
  85   12:30   0.87   80.1    20    4.0    18     8.6   982.3    0.00 
  85   12:40   0.86   80.6    21    6.6   106    13.7   982.1    0.00 
  85   12:50   0.83   80.2    21    5.7    89    11.3   982.0    0.00 
  85   13:00   0.84   80.3    22    6.0    86    10.3   981.9    0.00 
  85   13:10   0.83   80.5    22    4.3   162    12.9   981.8    0.00 
  85   13:20   0.82   82.0    21    1.6    23     5.0   981.7    0.00 
  85   13:30   0.80   82.1    21    3.5   359     8.0   981.7    0.00 
  85   13:40   0.79   82.2    21    2.3   136     9.0   981.5    0.00 
  85   13:50   0.77   82.6    20   10.6   232    22.4   981.4    0.00 
  85   14:00   0.74   81.7    23   14.3   236    20.5   981.4    0.00 
  85   14:10   0.72   82.0    24   10.9   232    17.6   981.3    0.00 
  85   14:20   0.70   81.7    26   11.6   233    18.9   981.2    0.00 
  85   14:30   0.67   82.5    23    4.1   222    11.5   981.0    0.00 
  85   14:40   0.65   81.9    25   11.3   221    20.7   981.0    0.00 

Return to Anza Borrego Desert State Park graphs page.


Western Regional Climate Center,wrcc@dri.edu